sensor_id;sensor_type;location;lat;lon;timestamp;temperature;humidity
79467;SHT30;68933;49.726;9.226;2023-06-10T00:01:29;18.8;62
79467;SHT30;68933;49.726;9.226;2023-06-10T00:03:42;18.8;62
79467;SHT30;68933;49.726;9.226;2023-06-10T00:05:55;18.7;62
79467;SHT30;68933;49.726;9.226;2023-06-10T00:08:08;18.7;62
79467;SHT30;68933;49.726;9.226;2023-06-10T00:10:21;18.7;62
79467;SHT30;68933;49.726;9.226;2023-06-10T00:12:34;18.7;62
79467;SHT30;68933;49.726;9.226;2023-06-10T00:14:47;18.6;63
79467;SHT30;68933;49.726;9.226;2023-06-10T00:17:00;18.6;63
79467;SHT30;68933;49.726;9.226;2023-06-10T00:19:13;18.5;63
79467;SHT30;68933;49.726;9.226;2023-06-10T00:21:26;18.5;63
79467;SHT30;68933;49.726;9.226;2023-06-10T00:23:39;18.5;63
79467;SHT30;68933;49.726;9.226;2023-06-10T00:25:52;18.4;63
79467;SHT30;68933;49.726;9.226;2023-06-10T00:28:05;18.4;63
79467;SHT30;68933;49.726;9.226;2023-06-10T00:30:18;18.3;64
79467;SHT30;68933;49.726;9.226;2023-06-10T00:32:31;18.3;64
79467;SHT30;68933;49.726;9.226;2023-06-10T00:34:44;18.2;65
79467;SHT30;68933;49.726;9.226;2023-06-10T00:36:57;18.2;65
79467;SHT30;68933;49.726;9.226;2023-06-10T00:39:10;18.1;65
79467;SHT30;68933;49.726;9.226;2023-06-10T00:41:23;18.1;65
79467;SHT30;68933;49.726;9.226;2023-06-10T00:43:36;17.9;65
79467;SHT30;68933;49.726;9.226;2023-06-10T00:45:49;17.9;65
79467;SHT30;68933;49.726;9.226;2023-06-10T00:48:02;17.8;65
79467;SHT30;68933;49.726;9.226;2023-06-10T00:50:15;17.8;65
79467;SHT30;68933;49.726;9.226;2023-06-10T00:52:28;17.8;65
79467;SHT30;68933;49.726;9.226;2023-06-10T00:54:41;17.7;66
79467;SHT30;68933;49.726;9.226;2023-06-10T00:56:54;17.7;66
79467;SHT30;68933;49.726;9.226;2023-06-10T00:59:07;17.7;66
79467;SHT30;68933;49.726;9.226;2023-06-10T01:01:20;17.7;66
79467;SHT30;68933;49.726;9.226;2023-06-10T01:03:33;17.5;66
79467;SHT30;68933;49.726;9.226;2023-06-10T01:05:46;17.5;66
79467;SHT30;68933;49.726;9.226;2023-06-10T01:08:00;17.5;66
79467;SHT30;68933;49.726;9.226;2023-06-10T01:10:16;17.5;66
79467;SHT30;68933;49.726;9.226;2023-06-10T01:12:26;17.5;66
79467;SHT30;68933;49.726;9.226;2023-06-10T01:14:38;17.4;66
79467;SHT30;68933;49.726;9.226;2023-06-10T01:16:51;17.4;66
79467;SHT30;68933;49.726;9.226;2023-06-10T01:19:04;17.4;67
79467;SHT30;68933;49.726;9.226;2023-06-10T01:21:19;17.4;67
79467;SHT30;68933;49.726;9.226;2023-06-10T01:23:30;17.4;67
79467;SHT30;68933;49.726;9.226;2023-06-10T01:25:44;17.3;67
79467;SHT30;68933;49.726;9.226;2023-06-10T01:27:58;17.3;67
79467;SHT30;68933;49.726;9.226;2023-06-10T01:30:11;17.2;67
79467;SHT30;68933;49.726;9.226;2023-06-10T01:32:23;17.2;67
79467;SHT30;68933;49.726;9.226;2023-06-10T01:34:35;17.2;67
79467;SHT30;68933;49.726;9.226;2023-06-10T01:36:48;17.2;67
79467;SHT30;68933;49.726;9.226;2023-06-10T01:39:01;17.2;67
79467;SHT30;68933;49.726;9.226;2023-06-10T01:41:15;17.1;67
79467;SHT30;68933;49.726;9.226;2023-06-10T01:43:27;17.1;67
79467;SHT30;68933;49.726;9.226;2023-06-10T01:45:40;17;67
79467;SHT30;68933;49.726;9.226;2023-06-10T01:47:53;17;67
79467;SHT30;68933;49.726;9.226;2023-06-10T01:50:06;17;67
79467;SHT30;68933;49.726;9.226;2023-06-10T01:52:19;17;67
79467;SHT30;68933;49.726;9.226;2023-06-10T01:54:32;17;67
79467;SHT30;68933;49.726;9.226;2023-06-10T01:56:45;16.9;67
79467;SHT30;68933;49.726;9.226;2023-06-10T01:58:58;16.9;67
79467;SHT30;68933;49.726;9.226;2023-06-10T02:01:11;16.9;67
79467;SHT30;68933;49.726;9.226;2023-06-10T02:03:24;16.9;67
79467;SHT30;68933;49.726;9.226;2023-06-10T02:05:37;16.9;67
79467;SHT30;68933;49.726;9.226;2023-06-10T02:07:50;16.8;67
79467;SHT30;68933;49.726;9.226;2023-06-10T02:10:03;16.8;67
79467;SHT30;68933;49.726;9.226;2023-06-10T02:12:16;16.6;69
79467;SHT30;68933;49.726;9.226;2023-06-10T02:14:29;16.6;69
79467;SHT30;68933;49.726;9.226;2023-06-10T02:16:42;16.6;69
79467;SHT30;68933;49.726;9.226;2023-06-10T02:18:55;16.6;69
79467;SHT30;68933;49.726;9.226;2023-06-10T02:21:08;16.6;69
79467;SHT30;68933;49.726;9.226;2023-06-10T02:23:21;16.6;69
79467;SHT30;68933;49.726;9.226;2023-06-10T02:25:34;16.6;69
79467;SHT30;68933;49.726;9.226;2023-06-10T02:27:47;16.4;69
79467;SHT30;68933;49.726;9.226;2023-06-10T02:30:00;16.4;69
79467;SHT30;68933;49.726;9.226;2023-06-10T02:32:13;16.5;69
79467;SHT30;68933;49.726;9.226;2023-06-10T02:34:26;16.5;69
79467;SHT30;68933;49.726;9.226;2023-06-10T02:36:39;16.5;69
79467;SHT30;68933;49.726;9.226;2023-06-10T02:38:52;16.4;69
79467;SHT30;68933;49.726;9.226;2023-06-10T02:41:05;16.4;69
79467;SHT30;68933;49.726;9.226;2023-06-10T02:43:18;16.3;69
79467;SHT30;68933;49.726;9.226;2023-06-10T02:45:31;16.3;69
79467;SHT30;68933;49.726;9.226;2023-06-10T02:47:44;16.2;69
79467;SHT30;68933;49.726;9.226;2023-06-10T02:49:57;16.2;69
79467;SHT30;68933;49.726;9.226;2023-06-10T02:52:10;16.2;69
79467;SHT30;68933;49.726;9.226;2023-06-10T02:54:23;16.2;69
79467;SHT30;68933;49.726;9.226;2023-06-10T02:56:36;16.2;69
79467;SHT30;68933;49.726;9.226;2023-06-10T02:58:49;16.2;70
79467;SHT30;68933;49.726;9.226;2023-06-10T03:01:02;16.2;70
79467;SHT30;68933;49.726;9.226;2023-06-10T03:03:15;16.1;70
79467;SHT30;68933;49.726;9.226;2023-06-10T03:05:28;16.1;70
79467;SHT30;68933;49.726;9.226;2023-06-10T03:07:41;16.1;70
79467;SHT30;68933;49.726;9.226;2023-06-10T03:09:54;15.9;70
79467;SHT30;68933;49.726;9.226;2023-06-10T03:12:07;15.9;70
79467;SHT30;68933;49.726;9.226;2023-06-10T03:14:20;15.8;70
79467;SHT30;68933;49.726;9.226;2023-06-10T03:16:33;15.8;70
79467;SHT30;68933;49.726;9.226;2023-06-10T03:18:46;15.7;70
79467;SHT30;68933;49.726;9.226;2023-06-10T03:20:59;15.7;70
79467;SHT30;68933;49.726;9.226;2023-06-10T03:23:12;15.7;70
79467;SHT30;68933;49.726;9.226;2023-06-10T03:25:25;15.7;71
79467;SHT30;68933;49.726;9.226;2023-06-10T03:27:38;15.7;71
79467;SHT30;68933;49.726;9.226;2023-06-10T03:29:51;15.7;71
79467;SHT30;68933;49.726;9.226;2023-06-10T03:32:04;15.6;71
79467;SHT30;68933;49.726;9.226;2023-06-10T03:34:17;15.6;71
79467;SHT30;68933;49.726;9.226;2023-06-10T03:36:30;15.6;71
79467;SHT30;68933;49.726;9.226;2023-06-10T03:38:43;15.6;71
79467;SHT30;68933;49.726;9.226;2023-06-10T03:40:56;15.6;71
79467;SHT30;68933;49.726;9.226;2023-06-10T03:43:09;15.6;71
79467;SHT30;68933;49.726;9.226;2023-06-10T03:45:22;15.6;71
79467;SHT30;68933;49.726;9.226;2023-06-10T03:47:35;15.5;71
79467;SHT30;68933;49.726;9.226;2023-06-10T03:49:48;15.5;71
79467;SHT30;68933;49.726;9.226;2023-06-10T03:52:01;15.5;71
79467;SHT30;68933;49.726;9.226;2023-06-10T03:54:14;15.5;71
79467;SHT30;68933;49.726;9.226;2023-06-10T03:56:27;15.5;71
79467;SHT30;68933;49.726;9.226;2023-06-10T03:58:40;15.5;71
79467;SHT30;68933;49.726;9.226;2023-06-10T04:00:53;15.5;71
79467;SHT30;68933;49.726;9.226;2023-06-10T04:03:06;15.4;71
79467;SHT30;68933;49.726;9.226;2023-06-10T04:05:19;15.4;71
79467;SHT30;68933;49.726;9.226;2023-06-10T04:07:32;15.4;71
79467;SHT30;68933;49.726;9.226;2023-06-10T04:09:45;15.4;71
79467;SHT30;68933;49.726;9.226;2023-06-10T04:11:58;15.4;71
79467;SHT30;68933;49.726;9.226;2023-06-10T04:14:11;15.4;73
79467;SHT30;68933;49.726;9.226;2023-06-10T04:16:24;15.4;73
79467;SHT30;68933;49.726;9.226;2023-06-10T04:18:37;15.4;71
79467;SHT30;68933;49.726;9.226;2023-06-10T04:20:50;15.4;71
79467;SHT30;68933;49.726;9.226;2023-06-10T04:23:03;15.4;71
79467;SHT30;68933;49.726;9.226;2023-06-10T04:25:16;15.4;73
79467;SHT30;68933;49.726;9.226;2023-06-10T04:27:29;15.4;73
79467;SHT30;68933;49.726;9.226;2023-06-10T04:29:42;15.4;73
79467;SHT30;68933;49.726;9.226;2023-06-10T04:31:55;15.4;73
79467;SHT30;68933;49.726;9.226;2023-06-10T04:34:08;15.4;73
79467;SHT30;68933;49.726;9.226;2023-06-10T04:36:21;15.4;73
79467;SHT30;68933;49.726;9.226;2023-06-10T04:38:34;15.4;71
79467;SHT30;68933;49.726;9.226;2023-06-10T04:40:47;15.4;71
79467;SHT30;68933;49.726;9.226;2023-06-10T04:43:00;15.4;71
79467;SHT30;68933;49.726;9.226;2023-06-10T04:45:13;15.4;71
79467;SHT30;68933;49.726;9.226;2023-06-10T04:47:26;15.4;71
79467;SHT30;68933;49.726;9.226;2023-06-10T04:49:39;15.5;71
79467;SHT30;68933;49.726;9.226;2023-06-10T04:51:52;15.5;71
79467;SHT30;68933;49.726;9.226;2023-06-10T04:54:05;15.5;73
79467;SHT30;68933;49.726;9.226;2023-06-10T04:56:18;15.5;73
79467;SHT30;68933;49.726;9.226;2023-06-10T04:58:31;15.5;73
79467;SHT30;68933;49.726;9.226;2023-06-10T05:00:44;15.5;73
79467;SHT30;68933;49.726;9.226;2023-06-10T05:02:57;15.5;73
79467;SHT30;68933;49.726;9.226;2023-06-10T05:05:10;15.5;73
79467;SHT30;68933;49.726;9.226;2023-06-10T05:07:23;15.5;73
79467;SHT30;68933;49.726;9.226;2023-06-10T05:09:36;15.6;73
79467;SHT30;68933;49.726;9.226;2023-06-10T05:11:49;15.6;73
79467;SHT30;68933;49.726;9.226;2023-06-10T05:14:02;15.6;73
79467;SHT30;68933;49.726;9.226;2023-06-10T05:16:15;15.6;73
79467;SHT30;68933;49.726;9.226;2023-06-10T05:18:28;15.6;73
79467;SHT30;68933;49.726;9.226;2023-06-10T05:20:41;15.7;73
79467;SHT30;68933;49.726;9.226;2023-06-10T05:22:54;15.7;73
79467;SHT30;68933;49.726;9.226;2023-06-10T05:25:07;15.8;73
79467;SHT30;68933;49.726;9.226;2023-06-10T05:27:20;15.8;73
79467;SHT30;68933;49.726;9.226;2023-06-10T05:29:33;15.9;73
79467;SHT30;68933;49.726;9.226;2023-06-10T05:31:46;15.9;73
79467;SHT30;68933;49.726;9.226;2023-06-10T05:33:59;16;73
79467;SHT30;68933;49.726;9.226;2023-06-10T05:36:12;16;73
79467;SHT30;68933;49.726;9.226;2023-06-10T05:38:25;16;73
79467;SHT30;68933;49.726;9.226;2023-06-10T05:40:38;16.1;73
79467;SHT30;68933;49.726;9.226;2023-06-10T05:42:51;16.1;73
79467;SHT30;68933;49.726;9.226;2023-06-10T05:45:05;16.3;73
79467;SHT30;68933;49.726;9.226;2023-06-10T05:47:17;16.3;73
79467;SHT30;68933;49.726;9.226;2023-06-10T05:49:30;16.4;71
79467;SHT30;68933;49.726;9.226;2023-06-10T05:51:43;16.4;71
79467;SHT30;68933;49.726;9.226;2023-06-10T05:53:56;16.7;71
79467;SHT30;68933;49.726;9.226;2023-06-10T05:56:09;16.7;71
79467;SHT30;68933;49.726;9.226;2023-06-10T05:58:23;16.8;71
79467;SHT30;68933;49.726;9.226;2023-06-10T06:00:35;16.8;71
79467;SHT30;68933;49.726;9.226;2023-06-10T06:02:48;16.8;71
79467;SHT30;68933;49.726;9.226;2023-06-10T06:05:01;17;71
79467;SHT30;68933;49.726;9.226;2023-06-10T06:07:14;17;71
79467;SHT30;68933;49.726;9.226;2023-06-10T06:09:27;17.2;70
79467;SHT30;68933;49.726;9.226;2023-06-10T06:11:40;17.2;70
79467;SHT30;68933;49.726;9.226;2023-06-10T06:13:53;17.4;70
79467;SHT30;68933;49.726;9.226;2023-06-10T06:16:06;17.4;70
79467;SHT30;68933;49.726;9.226;2023-06-10T06:18:19;17.6;70
79467;SHT30;68933;49.726;9.226;2023-06-10T06:20:32;17.6;70
79467;SHT30;68933;49.726;9.226;2023-06-10T06:22:45;17.6;70
79467;SHT30;68933;49.726;9.226;2023-06-10T06:24:58;17.9;68
79467;SHT30;68933;49.726;9.226;2023-06-10T06:27:11;17.9;68
79467;SHT30;68933;49.726;9.226;2023-06-10T06:29:24;18.1;68
79467;SHT30;68933;49.726;9.226;2023-06-10T06:31:37;18.1;68
79467;SHT30;68933;49.726;9.226;2023-06-10T06:33:50;18.3;67
79467;SHT30;68933;49.726;9.226;2023-06-10T06:36:03;18.3;67
79467;SHT30;68933;49.726;9.226;2023-06-10T06:38:16;18.3;67
79467;SHT30;68933;49.726;9.226;2023-06-10T06:40:29;18.6;66
79467;SHT30;68933;49.726;9.226;2023-06-10T06:42:42;18.6;66
79467;SHT30;68933;49.726;9.226;2023-06-10T06:44:55;18.9;66
79467;SHT30;68933;49.726;9.226;2023-06-10T06:47:08;18.9;66
79467;SHT30;68933;49.726;9.226;2023-06-10T06:49:21;18.9;66
79467;SHT30;68933;49.726;9.226;2023-06-10T06:51:34;19.1;64
79467;SHT30;68933;49.726;9.226;2023-06-10T06:53:47;19.1;64
79467;SHT30;68933;49.726;9.226;2023-06-10T06:56:00;19.3;64
79467;SHT30;68933;49.726;9.226;2023-06-10T06:58:13;19.3;64
79467;SHT30;68933;49.726;9.226;2023-06-10T07:00:26;19.3;64
79467;SHT30;68933;49.726;9.226;2023-06-10T07:02:39;19.7;63
79467;SHT30;68933;49.726;9.226;2023-06-10T07:04:52;19.7;63
79467;SHT30;68933;49.726;9.226;2023-06-10T07:07:06;20.1;62
79467;SHT30;68933;49.726;9.226;2023-06-10T07:09:18;20.1;62
79467;SHT30;68933;49.726;9.226;2023-06-10T07:11:31;20.3;59
79467;SHT30;68933;49.726;9.226;2023-06-10T07:13:44;20.3;59
79467;SHT30;68933;49.726;9.226;2023-06-10T07:15:57;20.3;59
79467;SHT30;68933;49.726;9.226;2023-06-10T07:18:10;20.4;58
79467;SHT30;68933;49.726;9.226;2023-06-10T07:20:23;20.4;58
79467;SHT30;68933;49.726;9.226;2023-06-10T07:22:36;20.8;58
79467;SHT30;68933;49.726;9.226;2023-06-10T07:24:49;20.8;58
79467;SHT30;68933;49.726;9.226;2023-06-10T07:27:02;21.1;58
79467;SHT30;68933;49.726;9.226;2023-06-10T07:29:15;21.1;58
79467;SHT30;68933;49.726;9.226;2023-06-10T07:31:28;21.1;58
79467;SHT30;68933;49.726;9.226;2023-06-10T07:33:41;21.3;56
79467;SHT30;68933;49.726;9.226;2023-06-10T07:35:54;21.3;56
79467;SHT30;68933;49.726;9.226;2023-06-10T07:38:07;21.6;55
79467;SHT30;68933;49.726;9.226;2023-06-10T07:40:20;21.6;55
79467;SHT30;68933;49.726;9.226;2023-06-10T07:42:34;22;55
79467;SHT30;68933;49.726;9.226;2023-06-10T07:44:46;22;55
79467;SHT30;68933;49.726;9.226;2023-06-10T07:46:59;22;55
79467;SHT30;68933;49.726;9.226;2023-06-10T07:49:12;22.2;55
79467;SHT30;68933;49.726;9.226;2023-06-10T07:51:25;22.2;55
79467;SHT30;68933;49.726;9.226;2023-06-10T07:53:38;22.6;52
79467;SHT30;68933;49.726;9.226;2023-06-10T07:55:51;22.6;52
79467;SHT30;68933;49.726;9.226;2023-06-10T07:58:04;23;51
79467;SHT30;68933;49.726;9.226;2023-06-10T08:00:17;23;51
79467;SHT30;68933;49.726;9.226;2023-06-10T08:02:30;23;51
79467;SHT30;68933;49.726;9.226;2023-06-10T08:04:43;23.2;50
79467;SHT30;68933;49.726;9.226;2023-06-10T08:06:56;23.2;50
79467;SHT30;68933;49.726;9.226;2023-06-10T08:09:09;23.6;50
79467;SHT30;68933;49.726;9.226;2023-06-10T08:11:22;23.6;50
79467;SHT30;68933;49.726;9.226;2023-06-10T08:13:35;24;50
79467;SHT30;68933;49.726;9.226;2023-06-10T08:15:48;24;50
79467;SHT30;68933;49.726;9.226;2023-06-10T08:18:01;24.2;48
79467;SHT30;68933;49.726;9.226;2023-06-10T08:20:14;24.2;48
79467;SHT30;68933;49.726;9.226;2023-06-10T08:22:27;24.6;48
79467;SHT30;68933;49.726;9.226;2023-06-10T08:24:40;24.6;48
79467;SHT30;68933;49.726;9.226;2023-06-10T08:26:53;24.6;48
79467;SHT30;68933;49.726;9.226;2023-06-10T08:29:06;25.1;48
79467;SHT30;68933;49.726;9.226;2023-06-10T08:31:19;25.1;48
79467;SHT30;68933;49.726;9.226;2023-06-10T08:33:32;25.3;47
79467;SHT30;68933;49.726;9.226;2023-06-10T08:35:45;25.3;47
79467;SHT30;68933;49.726;9.226;2023-06-10T08:37:58;25.7;46
79467;SHT30;68933;49.726;9.226;2023-06-10T08:40:12;25.7;46
79467;SHT30;68933;49.726;9.226;2023-06-10T08:42:25;26.1;46
79467;SHT30;68933;49.726;9.226;2023-06-10T08:44:37;26.1;46
79467;SHT30;68933;49.726;9.226;2023-06-10T08:46:50;26.1;46
79467;SHT30;68933;49.726;9.226;2023-06-10T08:49:04;26.3;44
79467;SHT30;68933;49.726;9.226;2023-06-10T08:51:16;26.3;44
79467;SHT30;68933;49.726;9.226;2023-06-10T08:53:29;26.5;44
79467;SHT30;68933;49.726;9.226;2023-06-10T08:55:42;26.5;44
79467;SHT30;68933;49.726;9.226;2023-06-10T08:57:55;26.7;43
79467;SHT30;68933;49.726;9.226;2023-06-10T09:00:08;26.7;43
79467;SHT30;68933;49.726;9.226;2023-06-10T09:02:21;26.8;42
79467;SHT30;68933;49.726;9.226;2023-06-10T09:04:34;26.8;42
79467;SHT30;68933;49.726;9.226;2023-06-10T09:06:48;26.9;42
79467;SHT30;68933;49.726;9.226;2023-06-10T09:09:00;26.9;42
79467;SHT30;68933;49.726;9.226;2023-06-10T09:11:13;26.9;42
79467;SHT30;68933;49.726;9.226;2023-06-10T09:13:26;27.2;42
79467;SHT30;68933;49.726;9.226;2023-06-10T09:15:39;27.2;42
79467;SHT30;68933;49.726;9.226;2023-06-10T09:17:52;27.5;40
79467;SHT30;68933;49.726;9.226;2023-06-10T09:20:06;27.5;40
79467;SHT30;68933;49.726;9.226;2023-06-10T09:22:18;27.5;40
79467;SHT30;68933;49.726;9.226;2023-06-10T09:24:31;27.7;40
79467;SHT30;68933;49.726;9.226;2023-06-10T09:26:44;27.7;40
79467;SHT30;68933;49.726;9.226;2023-06-10T09:29:01;27.9;40
79467;SHT30;68933;49.726;9.226;2023-06-10T09:31:11;27.9;40
79467;SHT30;68933;49.726;9.226;2023-06-10T09:33:23;28.1;40
79467;SHT30;68933;49.726;9.226;2023-06-10T09:35:37;28.1;40
79467;SHT30;68933;49.726;9.226;2023-06-10T09:37:50;28.1;40
79467;SHT30;68933;49.726;9.226;2023-06-10T09:40:03;28.4;39
79467;SHT30;68933;49.726;9.226;2023-06-10T09:42:16;28.4;39
79467;SHT30;68933;49.726;9.226;2023-06-10T09:44:28;28.7;39
79467;SHT30;68933;49.726;9.226;2023-06-10T09:46:41;28.7;39
79467;SHT30;68933;49.726;9.226;2023-06-10T09:48:54;28.9;38
79467;SHT30;68933;49.726;9.226;2023-06-10T09:51:08;28.9;38
79467;SHT30;68933;49.726;9.226;2023-06-10T09:53:20;28.9;38
79467;SHT30;68933;49.726;9.226;2023-06-10T09:55:33;29.2;38
79467;SHT30;68933;49.726;9.226;2023-06-10T09:57:48;29.2;38
79467;SHT30;68933;49.726;9.226;2023-06-10T09:59:59;29.3;38
79467;SHT30;68933;49.726;9.226;2023-06-10T10:02:13;29.3;38
79467;SHT30;68933;49.726;9.226;2023-06-10T10:04:25;29.4;38
79467;SHT30;68933;49.726;9.226;2023-06-10T10:06:38;29.4;38
79467;SHT30;68933;49.726;9.226;2023-06-10T10:08:51;29.7;36
79467;SHT30;68933;49.726;9.226;2023-06-10T10:11:04;29.7;36
79467;SHT30;68933;49.726;9.226;2023-06-10T10:13:17;29.7;36
79467;SHT30;68933;49.726;9.226;2023-06-10T10:15:31;30;36
79467;SHT30;68933;49.726;9.226;2023-06-10T10:17:44;30;36
79467;SHT30;68933;49.726;9.226;2023-06-10T10:19:58;30.2;36
79467;SHT30;68933;49.726;9.226;2023-06-10T10:22:10;30.2;36
79467;SHT30;68933;49.726;9.226;2023-06-10T10:24:23;30.7;36
79467;SHT30;68933;49.726;9.226;2023-06-10T10:26:35;30.7;36
79467;SHT30;68933;49.726;9.226;2023-06-10T10:28:51;30.9;35
79467;SHT30;68933;49.726;9.226;2023-06-10T10:31:02;30.9;35
79467;SHT30;68933;49.726;9.226;2023-06-10T10:33:16;31.2;34
79467;SHT30;68933;49.726;9.226;2023-06-10T10:35:27;31.2;34
79467;SHT30;68933;49.726;9.226;2023-06-10T10:37:40;31.2;34
79467;SHT30;68933;49.726;9.226;2023-06-10T10:39:53;31.1;34
79467;SHT30;68933;49.726;9.226;2023-06-10T10:42:06;31.1;34
79467;SHT30;68933;49.726;9.226;2023-06-10T10:44:19;31.2;34
79467;SHT30;68933;49.726;9.226;2023-06-10T10:46:37;31.2;34
79467;SHT30;68933;49.726;9.226;2023-06-10T10:48:49;31.3;34
79467;SHT30;68933;49.726;9.226;2023-06-10T10:50:58;31.3;34
79467;SHT30;68933;49.726;9.226;2023-06-10T10:53:11;31.4;34
79467;SHT30;68933;49.726;9.226;2023-06-10T10:55:25;31.4;34
79467;SHT30;68933;49.726;9.226;2023-06-10T10:57:38;31.4;34
79467;SHT30;68933;49.726;9.226;2023-06-10T10:59:52;31.9;32
79467;SHT30;68933;49.726;9.226;2023-06-10T11:02:03;31.9;32
79467;SHT30;68933;49.726;9.226;2023-06-10T11:04:17;32.1;32
79467;SHT30;68933;49.726;9.226;2023-06-10T11:06:29;32.1;32
79467;SHT30;68933;49.726;9.226;2023-06-10T11:08:45;32.3;32
79467;SHT30;68933;49.726;9.226;2023-06-10T11:10:55;32.3;32
79467;SHT30;68933;49.726;9.226;2023-06-10T11:13:09;32.2;32
79467;SHT30;68933;49.726;9.226;2023-06-10T11:15:22;32.2;32
79467;SHT30;68933;49.726;9.226;2023-06-10T11:17:34;31.9;32
79467;SHT30;68933;49.726;9.226;2023-06-10T11:19:47;31.9;32
79467;SHT30;68933;49.726;9.226;2023-06-10T11:22:00;31.7;31
79467;SHT30;68933;49.726;9.226;2023-06-10T11:24:13;31.7;31
79467;SHT30;68933;49.726;9.226;2023-06-10T11:26:30;31.7;31
79467;SHT30;68933;49.726;9.226;2023-06-10T11:28:39;31.7;31
79467;SHT30;68933;49.726;9.226;2023-06-10T11:30:57;31.7;31
79467;SHT30;68933;49.726;9.226;2023-06-10T11:33:05;31.7;31
79467;SHT30;68933;49.726;9.226;2023-06-10T11:35:19;31.7;31
79467;SHT30;68933;49.726;9.226;2023-06-10T11:37:31;31.7;31
79467;SHT30;68933;49.726;9.226;2023-06-10T11:39:44;31.8;31
79467;SHT30;68933;49.726;9.226;2023-06-10T11:41:57;31.8;31
79467;SHT30;68933;49.726;9.226;2023-06-10T11:44:11;31.9;32
79467;SHT30;68933;49.726;9.226;2023-06-10T11:46:23;31.9;32
79467;SHT30;68933;49.726;9.226;2023-06-10T11:48:36;31.9;32
79467;SHT30;68933;49.726;9.226;2023-06-10T11:50:49;32;30
79467;SHT30;68933;49.726;9.226;2023-06-10T11:53:02;32;30
79467;SHT30;68933;49.726;9.226;2023-06-10T11:55:15;32;31
79467;SHT30;68933;49.726;9.226;2023-06-10T11:57:28;32;31
79467;SHT30;68933;49.726;9.226;2023-06-10T11:59:41;32.4;31
79467;SHT30;68933;49.726;9.226;2023-06-10T12:01:54;32.4;31
79467;SHT30;68933;49.726;9.226;2023-06-10T12:04:08;32.4;31
79467;SHT30;68933;49.726;9.226;2023-06-10T12:06:20;32.7;30
79467;SHT30;68933;49.726;9.226;2023-06-10T12:08:33;32.7;30
79467;SHT30;68933;49.726;9.226;2023-06-10T12:10:46;32.9;30
79467;SHT30;68933;49.726;9.226;2023-06-10T12:12:59;32.9;30
79467;SHT30;68933;49.726;9.226;2023-06-10T12:15:19;33.2;30
79467;SHT30;68933;49.726;9.226;2023-06-10T12:17:35;33.2;30
79467;SHT30;68933;49.726;9.226;2023-06-10T12:19:38;33.2;30
79467;SHT30;68933;49.726;9.226;2023-06-10T12:21:51;33.4;29
79467;SHT30;68933;49.726;9.226;2023-06-10T12:24:05;33.4;29
79467;SHT30;68933;49.726;9.226;2023-06-10T12:26:17;33.5;29
79467;SHT30;68933;49.726;9.226;2023-06-10T12:28:30;33.5;29
79467;SHT30;68933;49.726;9.226;2023-06-10T12:30:43;33.5;29
79467;SHT30;68933;49.726;9.226;2023-06-10T12:32:56;33.5;29
79467;SHT30;68933;49.726;9.226;2023-06-10T12:35:10;33.5;29
79467;SHT30;68933;49.726;9.226;2023-06-10T12:37:22;33.8;29
79467;SHT30;68933;49.726;9.226;2023-06-10T12:39:35;33.8;29
79467;SHT30;68933;49.726;9.226;2023-06-10T12:41:48;34;27
79467;SHT30;68933;49.726;9.226;2023-06-10T12:44:01;34;27
79467;SHT30;68933;49.726;9.226;2023-06-10T12:46:14;34;27
79467;SHT30;68933;49.726;9.226;2023-06-10T12:48:27;34.1;27
79467;SHT30;68933;49.726;9.226;2023-06-10T12:50:40;34.1;27
79467;SHT30;68933;49.726;9.226;2023-06-10T12:52:53;34.2;27
79467;SHT30;68933;49.726;9.226;2023-06-10T12:55:06;34.2;27
79467;SHT30;68933;49.726;9.226;2023-06-10T12:57:19;34.2;27
79467;SHT30;68933;49.726;9.226;2023-06-10T12:59:32;34.2;27
79467;SHT30;68933;49.726;9.226;2023-06-10T13:01:49;34.2;27
79467;SHT30;68933;49.726;9.226;2023-06-10T13:03:58;34.2;26
79467;SHT30;68933;49.726;9.226;2023-06-10T13:06:11;34.2;26
79467;SHT30;68933;49.726;9.226;2023-06-10T13:08:24;34.4;26
79467;SHT30;68933;49.726;9.226;2023-06-10T13:10:37;34.4;26
79467;SHT30;68933;49.726;9.226;2023-06-10T13:12:50;34.5;27
79467;SHT30;68933;49.726;9.226;2023-06-10T13:15:04;34.5;27
79467;SHT30;68933;49.726;9.226;2023-06-10T13:17:16;34.9;27
79467;SHT30;68933;49.726;9.226;2023-06-10T13:19:29;34.9;27
79467;SHT30;68933;49.726;9.226;2023-06-10T13:21:42;34.9;27
79467;SHT30;68933;49.726;9.226;2023-06-10T13:23:55;34.9;27
79467;SHT30;68933;49.726;9.226;2023-06-10T13:26:08;34.9;27
79467;SHT30;68933;49.726;9.226;2023-06-10T13:28:21;35.1;26
79467;SHT30;68933;49.726;9.226;2023-06-10T13:30:34;35.1;26
79467;SHT30;68933;49.726;9.226;2023-06-10T13:32:47;35.4;26
79467;SHT30;68933;49.726;9.226;2023-06-10T13:35:00;35.4;26
79467;SHT30;68933;49.726;9.226;2023-06-10T13:37:13;35.4;25
79467;SHT30;68933;49.726;9.226;2023-06-10T13:39:26;35.4;25
79467;SHT30;68933;49.726;9.226;2023-06-10T13:41:39;35.4;25
79467;SHT30;68933;49.726;9.226;2023-06-10T13:43:52;35.5;26
79467;SHT30;68933;49.726;9.226;2023-06-10T13:46:05;35.5;26
79467;SHT30;68933;49.726;9.226;2023-06-10T13:48:18;35.7;25
79467;SHT30;68933;49.726;9.226;2023-06-10T13:50:31;35.7;25
79467;SHT30;68933;49.726;9.226;2023-06-10T13:52:44;35.7;25
79467;SHT30;68933;49.726;9.226;2023-06-10T13:54:57;35.7;25
79467;SHT30;68933;49.726;9.226;2023-06-10T13:57:10;35.7;25
79467;SHT30;68933;49.726;9.226;2023-06-10T13:59:23;35.7;25
79467;SHT30;68933;49.726;9.226;2023-06-10T14:01:36;35.7;25
79467;SHT30;68933;49.726;9.226;2023-06-10T14:03:49;35.6;25
79467;SHT30;68933;49.726;9.226;2023-06-10T14:06:02;35.6;25
79467;SHT30;68933;49.726;9.226;2023-06-10T14:08:15;35.7;25
79467;SHT30;68933;49.726;9.226;2023-06-10T14:10:28;35.7;25
79467;SHT30;68933;49.726;9.226;2023-06-10T14:12:41;35.9;25
79467;SHT30;68933;49.726;9.226;2023-06-10T14:14:54;35.9;25
79467;SHT30;68933;49.726;9.226;2023-06-10T14:17:07;36;25
79467;SHT30;68933;49.726;9.226;2023-06-10T14:19:20;36;25
79467;SHT30;68933;49.726;9.226;2023-06-10T14:21:33;36;25
79467;SHT30;68933;49.726;9.226;2023-06-10T14:23:46;36;25
79467;SHT30;68933;49.726;9.226;2023-06-10T14:25:59;36;25
79467;SHT30;68933;49.726;9.226;2023-06-10T14:28:12;36;25
79467;SHT30;68933;49.726;9.226;2023-06-10T14:30:25;36;25
79467;SHT30;68933;49.726;9.226;2023-06-10T14:32:38;36;25
79467;SHT30;68933;49.726;9.226;2023-06-10T14:34:51;36.2;25
79467;SHT30;68933;49.726;9.226;2023-06-10T14:37:04;36.2;25
79467;SHT30;68933;49.726;9.226;2023-06-10T14:39:17;36;25
79467;SHT30;68933;49.726;9.226;2023-06-10T14:41:30;36;25
79467;SHT30;68933;49.726;9.226;2023-06-10T14:43:43;36;25
79467;SHT30;68933;49.726;9.226;2023-06-10T14:45:56;36;26
79467;SHT30;68933;49.726;9.226;2023-06-10T14:48:09;36;26
79467;SHT30;68933;49.726;9.226;2023-06-10T14:50:22;36.1;26
79467;SHT30;68933;49.726;9.226;2023-06-10T14:52:35;36.1;26
79467;SHT30;68933;49.726;9.226;2023-06-10T14:54:48;36.3;25
79467;SHT30;68933;49.726;9.226;2023-06-10T14:57:01;36.3;25
79467;SHT30;68933;49.726;9.226;2023-06-10T14:59:14;36.3;25